sensor_id;sensor_type;location;lat;lon;timestamp;P1;durP1;ratioP1;P2;durP2;ratioP2
81901;SDS011;71369;50.796;3.290;2023-12-20T00:01:25;13.65;;;4.68;;
81901;SDS011;71369;50.796;3.290;2023-12-20T00:03:51;18.45;;;5.03;;
81901;SDS011;71369;50.796;3.290;2023-12-20T00:06:16;13.50;;;4.22;;
81901;SDS011;71369;50.796;3.290;2023-12-20T00:08:42;9.60;;;6.13;;
81901;SDS011;71369;50.796;3.290;2023-12-20T00:11:09;11.52;;;4.40;;
81901;SDS011;71369;50.796;3.290;2023-12-20T00:13:35;12.68;;;4.25;;
81901;SDS011;71369;50.796;3.290;2023-12-20T00:16:00;14.13;;;4.40;;
81901;SDS011;71369;50.796;3.290;2023-12-20T00:18:26;12.80;;;4.63;;
81901;SDS011;71369;50.796;3.290;2023-12-20T00:20:53;10.73;;;4.22;;
81901;SDS011;71369;50.796;3.290;2023-12-20T00:23:18;11.95;;;3.75;;
81901;SDS011;71369;50.796;3.290;2023-12-20T00:25:45;15.18;;;4.20;;
81901;SDS011;71369;50.796;3.290;2023-12-20T00:28:10;16.88;;;5.18;;
81901;SDS011;71369;50.796;3.290;2023-12-20T00:30:36;11.30;;;3.30;;
81901;SDS011;71369;50.796;3.290;2023-12-20T00:33:02;10.30;;;3.97;;
81901;SDS011;71369;50.796;3.290;2023-12-20T00:35:28;13.65;;;3.75;;
81901;SDS011;71369;50.796;3.290;2023-12-20T00:37:55;16.85;;;3.72;;
81901;SDS011;71369;50.796;3.290;2023-12-20T00:40:22;15.07;;;4.18;;
81901;SDS011;71369;50.796;3.290;2023-12-20T00:42:47;13.07;;;3.97;;
81901;SDS011;71369;50.796;3.290;2023-12-20T00:45:13;15.20;;;3.88;;
81901;SDS011;71369;50.796;3.290;2023-12-20T00:47:39;14.98;;;4.05;;
81901;SDS011;71369;50.796;3.290;2023-12-20T00:50:06;13.15;;;4.05;;
81901;SDS011;71369;50.796;3.290;2023-12-20T00:52:32;11.10;;;4.38;;
81901;SDS011;71369;50.796;3.290;2023-12-20T00:54:58;14.68;;;5.53;;
81901;SDS011;71369;50.796;3.290;2023-12-20T00:57:24;10.02;;;4.00;;
81901;SDS011;71369;50.796;3.290;2023-12-20T00:59:50;9.85;;;3.63;;
81901;SDS011;71369;50.796;3.290;2023-12-20T01:02:16;15.25;;;4.40;;
81901;SDS011;71369;50.796;3.290;2023-12-20T01:04:43;16.95;;;4.82;;
81901;SDS011;71369;50.796;3.290;2023-12-20T01:07:08;13.15;;;4.15;;
81901;SDS011;71369;50.796;3.290;2023-12-20T01:09:34;10.20;;;3.30;;
81901;SDS011;71369;50.796;3.290;2023-12-20T01:12:00;13.95;;;3.47;;
81901;SDS011;71369;50.796;3.290;2023-12-20T01:14:25;10.48;;;3.00;;
81901;SDS011;71369;50.796;3.290;2023-12-20T01:16:51;12.68;;;3.55;;
81901;SDS011;71369;50.796;3.290;2023-12-20T01:19:17;7.90;;;3.20;;
81901;SDS011;71369;50.796;3.290;2023-12-20T01:21:42;15.13;;;3.58;;
81901;SDS011;71369;50.796;3.290;2023-12-20T01:24:09;13.25;;;3.78;;
81901;SDS011;71369;50.796;3.290;2023-12-20T01:26:35;13.73;;;3.50;;
81901;SDS011;71369;50.796;3.290;2023-12-20T01:29:01;11.13;;;4.03;;
81901;SDS011;71369;50.796;3.290;2023-12-20T01:31:27;12.18;;;3.35;;
81901;SDS011;71369;50.796;3.290;2023-12-20T01:33:52;15.10;;;4.63;;
81901;SDS011;71369;50.796;3.290;2023-12-20T01:36:18;11.93;;;3.45;;
81901;SDS011;71369;50.796;3.290;2023-12-20T01:38:44;15.40;;;4.25;;
81901;SDS011;71369;50.796;3.290;2023-12-20T01:41:10;10.38;;;4.15;;
81901;SDS011;71369;50.796;3.290;2023-12-20T01:43:36;14.02;;;4.75;;
81901;SDS011;71369;50.796;3.290;2023-12-20T01:46:02;13.18;;;4.50;;
81901;SDS011;71369;50.796;3.290;2023-12-20T01:48:28;11.30;;;4.47;;
81901;SDS011;71369;50.796;3.290;2023-12-20T01:50:59;12.82;;;4.38;;
81901;SDS011;71369;50.796;3.290;2023-12-20T01:53:25;18.65;;;4.50;;
81901;SDS011;71369;50.796;3.290;2023-12-20T01:55:54;14.35;;;5.18;;
81901;SDS011;71369;50.796;3.290;2023-12-20T01:58:21;10.73;;;4.82;;
81901;SDS011;71369;50.796;3.290;2023-12-20T02:00:48;16.75;;;4.60;;
81901;SDS011;71369;50.796;3.290;2023-12-20T02:03:14;13.38;;;4.82;;
81901;SDS011;71369;50.796;3.290;2023-12-20T02:05:41;18.83;;;4.82;;
81901;SDS011;71369;50.796;3.290;2023-12-20T02:08:07;10.15;;;4.88;;
81901;SDS011;71369;50.796;3.290;2023-12-20T02:10:34;13.98;;;5.10;;
81901;SDS011;71369;50.796;3.290;2023-12-20T02:13:01;13.80;;;4.18;;
81901;SDS011;71369;50.796;3.290;2023-12-20T02:15:27;9.10;;;3.97;;
81901;SDS011;71369;50.796;3.290;2023-12-20T02:17:53;12.32;;;4.10;;
81901;SDS011;71369;50.796;3.290;2023-12-20T02:20:19;11.57;;;4.05;;
81901;SDS011;71369;50.796;3.290;2023-12-20T02:22:45;8.55;;;4.45;;
81901;SDS011;71369;50.796;3.290;2023-12-20T02:25:10;11.85;;;4.10;;
81901;SDS011;71369;50.796;3.290;2023-12-20T02:27:36;14.85;;;4.40;;
81901;SDS011;71369;50.796;3.290;2023-12-20T02:30:03;18.60;;;4.20;;
81901;SDS011;71369;50.796;3.290;2023-12-20T02:32:29;17.63;;;4.63;;
81901;SDS011;71369;50.796;3.290;2023-12-20T02:34:55;10.98;;;3.95;;
81901;SDS011;71369;50.796;3.290;2023-12-20T02:37:21;10.00;;;3.95;;
81901;SDS011;71369;50.796;3.290;2023-12-20T02:39:47;16.45;;;4.43;;
81901;SDS011;71369;50.796;3.290;2023-12-20T02:42:13;7.93;;;3.70;;
81901;SDS011;71369;50.796;3.290;2023-12-20T02:44:39;14.07;;;4.10;;
81901;SDS011;71369;50.796;3.290;2023-12-20T02:47:05;8.43;;;3.97;;
81901;SDS011;71369;50.796;3.290;2023-12-20T02:49:32;9.30;;;3.38;;
81901;SDS011;71369;50.796;3.290;2023-12-20T02:51:58;10.05;;;3.92;;
81901;SDS011;71369;50.796;3.290;2023-12-20T02:54:26;9.00;;;4.32;;
81901;SDS011;71369;50.796;3.290;2023-12-20T02:56:51;9.18;;;4.43;;
81901;SDS011;71369;50.796;3.290;2023-12-20T02:59:17;12.82;;;5.43;;
81901;SDS011;71369;50.796;3.290;2023-12-20T03:01:44;20.23;;;5.63;;
81901;SDS011;71369;50.796;3.290;2023-12-20T03:04:10;13.02;;;4.00;;
81901;SDS011;71369;50.796;3.290;2023-12-20T03:06:37;17.20;;;4.05;;
81901;SDS011;71369;50.796;3.290;2023-12-20T03:09:03;10.82;;;3.97;;
81901;SDS011;71369;50.796;3.290;2023-12-20T03:11:29;12.35;;;4.45;;
81901;SDS011;71369;50.796;3.290;2023-12-20T03:13:55;12.25;;;4.45;;
81901;SDS011;71369;50.796;3.290;2023-12-20T03:16:21;7.25;;;3.13;;
81901;SDS011;71369;50.796;3.290;2023-12-20T03:18:47;10.23;;;4.18;;
81901;SDS011;71369;50.796;3.290;2023-12-20T03:21:12;10.63;;;3.83;;
81901;SDS011;71369;50.796;3.290;2023-12-20T03:23:38;14.35;;;3.67;;
81901;SDS011;71369;50.796;3.290;2023-12-20T03:26:08;16.90;;;4.53;;
81901;SDS011;71369;50.796;3.290;2023-12-20T03:28:35;17.20;;;5.28;;
81901;SDS011;71369;50.796;3.290;2023-12-20T03:31:02;24.58;;;4.72;;
81901;SDS011;71369;50.796;3.290;2023-12-20T03:33:28;13.68;;;4.40;;
81901;SDS011;71369;50.796;3.290;2023-12-20T03:35:54;10.88;;;3.85;;
81901;SDS011;71369;50.796;3.290;2023-12-20T03:38:20;12.85;;;4.25;;
81901;SDS011;71369;50.796;3.290;2023-12-20T03:40:49;14.15;;;3.90;;
81901;SDS011;71369;50.796;3.290;2023-12-20T03:43:15;14.35;;;4.55;;
81901;SDS011;71369;50.796;3.290;2023-12-20T03:45:42;10.80;;;4.57;;
81901;SDS011;71369;50.796;3.290;2023-12-20T03:48:08;11.15;;;4.03;;
81901;SDS011;71369;50.796;3.290;2023-12-20T03:50:34;9.55;;;3.58;;
81901;SDS011;71369;50.796;3.290;2023-12-20T03:53:00;16.50;;;3.83;;
81901;SDS011;71369;50.796;3.290;2023-12-20T03:55:27;11.35;;;3.65;;
81901;SDS011;71369;50.796;3.290;2023-12-20T03:57:53;11.23;;;3.67;;
81901;SDS011;71369;50.796;3.290;2023-12-20T04:00:18;10.88;;;3.88;;
81901;SDS011;71369;50.796;3.290;2023-12-20T04:02:44;10.30;;;4.30;;
81901;SDS011;71369;50.796;3.290;2023-12-20T04:05:11;14.88;;;3.40;;
81901;SDS011;71369;50.796;3.290;2023-12-20T04:07:37;11.02;;;3.50;;
81901;SDS011;71369;50.796;3.290;2023-12-20T04:10:03;16.38;;;3.70;;
81901;SDS011;71369;50.796;3.290;2023-12-20T04:12:32;13.73;;;2.90;;
81901;SDS011;71369;50.796;3.290;2023-12-20T04:14:57;13.68;;;3.80;;
81901;SDS011;71369;50.796;3.290;2023-12-20T04:17:23;11.77;;;3.00;;
81901;SDS011;71369;50.796;3.290;2023-12-20T04:19:49;14.00;;;3.28;;
81901;SDS011;71369;50.796;3.290;2023-12-20T04:22:16;21.15;;;3.58;;
81901;SDS011;71369;50.796;3.290;2023-12-20T04:24:43;11.95;;;3.58;;
81901;SDS011;71369;50.796;3.290;2023-12-20T04:27:09;24.45;;;3.58;;
81901;SDS011;71369;50.796;3.290;2023-12-20T04:29:34;9.60;;;2.63;;
81901;SDS011;71369;50.796;3.290;2023-12-20T04:32:00;14.60;;;3.97;;
81901;SDS011;71369;50.796;3.290;2023-12-20T04:34:26;14.40;;;3.90;;
81901;SDS011;71369;50.796;3.290;2023-12-20T04:36:52;15.55;;;4.50;;
81901;SDS011;71369;50.796;3.290;2023-12-20T04:39:18;13.82;;;3.70;;
81901;SDS011;71369;50.796;3.290;2023-12-20T04:41:44;19.52;;;3.90;;
81901;SDS011;71369;50.796;3.290;2023-12-20T04:44:09;16.13;;;4.25;;
81901;SDS011;71369;50.796;3.290;2023-12-20T04:46:36;10.15;;;3.13;;
81901;SDS011;71369;50.796;3.290;2023-12-20T04:49:02;9.43;;;3.20;;
81901;SDS011;71369;50.796;3.290;2023-12-20T04:51:28;13.77;;;3.10;;
81901;SDS011;71369;50.796;3.290;2023-12-20T04:53:53;12.32;;;4.25;;
81901;SDS011;71369;50.796;3.290;2023-12-20T04:56:20;10.18;;;3.72;;
81901;SDS011;71369;50.796;3.290;2023-12-20T04:58:46;20.27;;;5.18;;
81901;SDS011;71369;50.796;3.290;2023-12-20T05:01:12;28.60;;;5.40;;
81901;SDS011;71369;50.796;3.290;2023-12-20T05:03:38;17.02;;;4.45;;
81901;SDS011;71369;50.796;3.290;2023-12-20T05:06:04;11.65;;;3.35;;
81901;SDS011;71369;50.796;3.290;2023-12-20T05:08:29;13.30;;;3.80;;
81901;SDS011;71369;50.796;3.290;2023-12-20T05:10:55;10.38;;;3.50;;
81901;SDS011;71369;50.796;3.290;2023-12-20T05:13:21;10.02;;;3.15;;
81901;SDS011;71369;50.796;3.290;2023-12-20T05:15:47;17.15;;;3.30;;
81901;SDS011;71369;50.796;3.290;2023-12-20T05:18:13;13.32;;;3.97;;
81901;SDS011;71369;50.796;3.290;2023-12-20T05:20:39;16.83;;;3.83;;
81901;SDS011;71369;50.796;3.290;2023-12-20T05:23:05;14.27;;;3.88;;
81901;SDS011;71369;50.796;3.290;2023-12-20T05:25:31;20.10;;;3.92;;
81901;SDS011;71369;50.796;3.290;2023-12-20T05:27:57;11.77;;;4.10;;
81901;SDS011;71369;50.796;3.290;2023-12-20T05:30:22;11.20;;;3.75;;
81901;SDS011;71369;50.796;3.290;2023-12-20T05:32:48;11.48;;;4.18;;
81901;SDS011;71369;50.796;3.290;2023-12-20T05:35:14;8.27;;;3.75;;
81901;SDS011;71369;50.796;3.290;2023-12-20T05:37:40;15.25;;;3.75;;
81901;SDS011;71369;50.796;3.290;2023-12-20T05:40:06;11.98;;;3.38;;
81901;SDS011;71369;50.796;3.290;2023-12-20T05:42:35;15.68;;;4.65;;
81901;SDS011;71369;50.796;3.290;2023-12-20T05:45:02;13.90;;;3.58;;
81901;SDS011;71369;50.796;3.290;2023-12-20T05:47:27;10.05;;;3.47;;
81901;SDS011;71369;50.796;3.290;2023-12-20T05:49:54;15.20;;;3.45;;
81901;SDS011;71369;50.796;3.290;2023-12-20T05:52:20;8.65;;;2.70;;
81901;SDS011;71369;50.796;3.290;2023-12-20T05:54:45;14.75;;;3.80;;
81901;SDS011;71369;50.796;3.290;2023-12-20T05:57:11;13.30;;;3.30;;
81901;SDS011;71369;50.796;3.290;2023-12-20T05:59:37;6.00;;;2.95;;
81901;SDS011;71369;50.796;3.290;2023-12-20T06:02:03;21.58;;;3.72;;
81901;SDS011;71369;50.796;3.290;2023-12-20T06:04:30;10.68;;;3.22;;
81901;SDS011;71369;50.796;3.290;2023-12-20T06:06:55;7.38;;;2.70;;
81901;SDS011;71369;50.796;3.290;2023-12-20T06:09:21;10.45;;;3.78;;
81901;SDS011;71369;50.796;3.290;2023-12-20T06:11:49;14.57;;;3.08;;
81901;SDS011;71369;50.796;3.290;2023-12-20T06:14:16;10.93;;;3.40;;
81901;SDS011;71369;50.796;3.290;2023-12-20T06:16:42;11.93;;;3.00;;
81901;SDS011;71369;50.796;3.290;2023-12-20T06:19:08;14.20;;;3.80;;
81901;SDS011;71369;50.796;3.290;2023-12-20T06:21:34;8.40;;;3.03;;
81901;SDS011;71369;50.796;3.290;2023-12-20T06:23:59;20.20;;;5.22;;
81901;SDS011;71369;50.796;3.290;2023-12-20T06:26:25;15.40;;;5.72;;
81901;SDS011;71369;50.796;3.290;2023-12-20T06:28:51;15.13;;;5.05;;
81901;SDS011;71369;50.796;3.290;2023-12-20T06:31:17;17.65;;;4.60;;
81901;SDS011;71369;50.796;3.290;2023-12-20T06:33:43;25.70;;;6.50;;
81901;SDS011;71369;50.796;3.290;2023-12-20T06:36:12;12.95;;;4.07;;
81901;SDS011;71369;50.796;3.290;2023-12-20T06:38:38;12.38;;;5.05;;
81901;SDS011;71369;50.796;3.290;2023-12-20T06:41:04;14.77;;;6.03;;
81901;SDS011;71369;50.796;3.290;2023-12-20T06:43:31;10.88;;;4.82;;
81901;SDS011;71369;50.796;3.290;2023-12-20T06:45:57;11.13;;;4.28;;
81901;SDS011;71369;50.796;3.290;2023-12-20T06:48:23;13.18;;;4.82;;
81901;SDS011;71369;50.796;3.290;2023-12-20T06:50:49;15.05;;;5.05;;
81901;SDS011;71369;50.796;3.290;2023-12-20T06:53:17;11.20;;;4.40;;
81901;SDS011;71369;50.796;3.290;2023-12-20T06:55:45;10.32;;;4.60;;
81901;SDS011;71369;50.796;3.290;2023-12-20T06:58:11;19.70;;;5.22;;
81901;SDS011;71369;50.796;3.290;2023-12-20T07:00:36;14.15;;;3.70;;
81901;SDS011;71369;50.796;3.290;2023-12-20T07:03:03;16.60;;;3.88;;
81901;SDS011;71369;50.796;3.290;2023-12-20T07:05:29;20.92;;;3.95;;
81901;SDS011;71369;50.796;3.290;2023-12-20T07:07:54;14.65;;;4.70;;
81901;SDS011;71369;50.796;3.290;2023-12-20T07:10:20;17.15;;;5.80;;
81901;SDS011;71369;50.796;3.290;2023-12-20T07:12:46;10.05;;;3.08;;
81901;SDS011;71369;50.796;3.290;2023-12-20T07:15:13;16.10;;;4.43;;
81901;SDS011;71369;50.796;3.290;2023-12-20T07:17:39;13.15;;;3.00;;
81901;SDS011;71369;50.796;3.290;2023-12-20T07:20:05;11.57;;;3.25;;
81901;SDS011;71369;50.796;3.290;2023-12-20T07:22:34;13.93;;;3.22;;
81901;SDS011;71369;50.796;3.290;2023-12-20T07:25:00;13.05;;;3.33;;
81901;SDS011;71369;50.796;3.290;2023-12-20T07:27:26;19.58;;;3.25;;
81901;SDS011;71369;50.796;3.290;2023-12-20T07:29:52;11.85;;;3.45;;
81901;SDS011;71369;50.796;3.290;2023-12-20T07:32:18;12.38;;;4.68;;
81901;SDS011;71369;50.796;3.290;2023-12-20T07:34:44;14.52;;;3.10;;
81901;SDS011;71369;50.796;3.290;2023-12-20T07:37:18;13.43;;;3.45;;
81901;SDS011;71369;50.796;3.290;2023-12-20T07:39:44;13.70;;;3.10;;
81901;SDS011;71369;50.796;3.290;2023-12-20T07:42:11;12.95;;;3.65;;
81901;SDS011;71369;50.796;3.290;2023-12-20T07:44:37;15.82;;;3.45;;
81901;SDS011;71369;50.796;3.290;2023-12-20T07:47:03;17.58;;;3.40;;
81901;SDS011;71369;50.796;3.290;2023-12-20T07:49:30;17.73;;;3.70;;
81901;SDS011;71369;50.796;3.290;2023-12-20T07:51:57;9.27;;;3.72;;
81901;SDS011;71369;50.796;3.290;2023-12-20T07:54:22;12.48;;;3.63;;
81901;SDS011;71369;50.796;3.290;2023-12-20T07:56:49;11.15;;;3.65;;
81901;SDS011;71369;50.796;3.290;2023-12-20T07:59:15;8.50;;;3.05;;
81901;SDS011;71369;50.796;3.290;2023-12-20T08:01:43;18.13;;;4.47;;
81901;SDS011;71369;50.796;3.290;2023-12-20T08:04:09;13.23;;;3.08;;
81901;SDS011;71369;50.796;3.290;2023-12-20T08:06:38;16.92;;;4.68;;
81901;SDS011;71369;50.796;3.290;2023-12-20T08:09:04;8.88;;;3.40;;
81901;SDS011;71369;50.796;3.290;2023-12-20T08:11:30;14.77;;;3.78;;
81901;SDS011;71369;50.796;3.290;2023-12-20T08:13:56;10.48;;;2.88;;
81901;SDS011;71369;50.796;3.290;2023-12-20T08:16:23;14.75;;;4.28;;
81901;SDS011;71369;50.796;3.290;2023-12-20T08:18:51;19.63;;;4.32;;
81901;SDS011;71369;50.796;3.290;2023-12-20T08:21:17;12.52;;;3.58;;
81901;SDS011;71369;50.796;3.290;2023-12-20T08:23:45;13.52;;;3.67;;
81901;SDS011;71369;50.796;3.290;2023-12-20T08:26:12;12.40;;;3.25;;
81901;SDS011;71369;50.796;3.290;2023-12-20T08:28:38;8.85;;;2.92;;
81901;SDS011;71369;50.796;3.290;2023-12-20T08:31:06;12.90;;;4.07;;
81901;SDS011;71369;50.796;3.290;2023-12-20T08:33:39;10.50;;;3.25;;
81901;SDS011;71369;50.796;3.290;2023-12-20T08:36:26;16.55;;;4.28;;
81901;SDS011;71369;50.796;3.290;2023-12-20T08:41:51;10.30;;;2.88;;
81901;SDS011;71369;50.796;3.290;2023-12-20T08:44:17;15.43;;;3.20;;
81901;SDS011;71369;50.796;3.290;2023-12-20T08:46:52;13.13;;;3.45;;
81901;SDS011;71369;50.796;3.290;2023-12-20T08:49:35;11.18;;;2.80;;
81901;SDS011;71369;50.796;3.290;2023-12-20T08:55:29;8.32;;;3.22;;
81901;SDS011;71369;50.796;3.290;2023-12-20T08:57:56;8.80;;;2.88;;
81901;SDS011;71369;50.796;3.290;2023-12-20T09:00:22;14.73;;;3.28;;
81901;SDS011;71369;50.796;3.290;2023-12-20T09:02:52;12.57;;;3.38;;
81901;SDS011;71369;50.796;3.290;2023-12-20T09:05:19;11.45;;;3.00;;
81901;SDS011;71369;50.796;3.290;2023-12-20T09:07:44;11.43;;;3.25;;
81901;SDS011;71369;50.796;3.290;2023-12-20T09:10:12;15.00;;;3.40;;
81901;SDS011;71369;50.796;3.290;2023-12-20T09:12:38;11.80;;;2.92;;
81901;SDS011;71369;50.796;3.290;2023-12-20T09:15:07;12.40;;;3.00;;
81901;SDS011;71369;50.796;3.290;2023-12-20T09:17:33;13.05;;;3.17;;
81901;SDS011;71369;50.796;3.290;2023-12-20T09:19:58;21.95;;;3.33;;
81901;SDS011;71369;50.796;3.290;2023-12-20T09:22:25;8.85;;;3.28;;
81901;SDS011;71369;50.796;3.290;2023-12-20T09:24:51;16.60;;;3.22;;
81901;SDS011;71369;50.796;3.290;2023-12-20T09:27:17;13.77;;;3.05;;
81901;SDS011;71369;50.796;3.290;2023-12-20T09:29:45;10.77;;;2.85;;
81901;SDS011;71369;50.796;3.290;2023-12-20T09:32:10;16.42;;;3.78;;
81901;SDS011;71369;50.796;3.290;2023-12-20T09:34:36;11.05;;;3.58;;
81901;SDS011;71369;50.796;3.290;2023-12-20T09:37:02;14.77;;;3.85;;
81901;SDS011;71369;50.796;3.290;2023-12-20T09:39:29;13.15;;;2.97;;
81901;SDS011;71369;50.796;3.290;2023-12-20T09:42:04;18.92;;;3.97;;
81901;SDS011;71369;50.796;3.290;2023-12-20T09:44:31;12.18;;;3.65;;
81901;SDS011;71369;50.796;3.290;2023-12-20T09:46:59;22.35;;;3.95;;
81901;SDS011;71369;50.796;3.290;2023-12-20T09:49:28;13.52;;;3.35;;
81901;SDS011;71369;50.796;3.290;2023-12-20T09:51:55;16.88;;;3.75;;
81901;SDS011;71369;50.796;3.290;2023-12-20T09:54:22;10.70;;;2.70;;
81901;SDS011;71369;50.796;3.290;2023-12-20T09:56:49;14.30;;;3.55;;
81901;SDS011;71369;50.796;3.290;2023-12-20T09:59:16;9.70;;;3.70;;
81901;SDS011;71369;50.796;3.290;2023-12-20T10:01:42;10.90;;;3.13;;
81901;SDS011;71369;50.796;3.290;2023-12-20T10:04:09;8.68;;;3.40;;
81901;SDS011;71369;50.796;3.290;2023-12-20T10:06:43;13.25;;;3.60;;
81901;SDS011;71369;50.796;3.290;2023-12-20T10:09:09;9.98;;;2.92;;
81901;SDS011;71369;50.796;3.290;2023-12-20T10:11:37;9.55;;;2.92;;
81901;SDS011;71369;50.796;3.290;2023-12-20T10:14:04;7.35;;;2.92;;
81901;SDS011;71369;50.796;3.290;2023-12-20T10:16:50;15.30;;;3.58;;
81901;SDS011;71369;50.796;3.290;2023-12-20T10:19:19;12.32;;;2.80;;
81901;SDS011;71369;50.796;3.290;2023-12-20T10:21:45;11.10;;;3.10;;
81901;SDS011;71369;50.796;3.290;2023-12-20T10:24:16;14.45;;;2.78;;
81901;SDS011;71369;50.796;3.290;2023-12-20T10:26:42;13.05;;;3.10;;
81901;SDS011;71369;50.796;3.290;2023-12-20T10:29:09;10.50;;;2.88;;
81901;SDS011;71369;50.796;3.290;2023-12-20T10:31:36;12.82;;;4.65;;
81901;SDS011;71369;50.796;3.290;2023-12-20T10:34:03;15.00;;;3.88;;
81901;SDS011;71369;50.796;3.290;2023-12-20T10:36:33;10.32;;;2.88;;
81901;SDS011;71369;50.796;3.290;2023-12-20T10:38:59;9.98;;;2.80;;
81901;SDS011;71369;50.796;3.290;2023-12-20T10:41:27;13.88;;;3.17;;
81901;SDS011;71369;50.796;3.290;2023-12-20T10:44:01;13.43;;;2.95;;
81901;SDS011;71369;50.796;3.290;2023-12-20T10:46:33;8.20;;;2.75;;
81901;SDS011;71369;50.796;3.290;2023-12-20T10:49:06;12.48;;;2.80;;
81901;SDS011;71369;50.796;3.290;2023-12-20T10:51:34;11.48;;;3.10;;
81901;SDS011;71369;50.796;3.290;2023-12-20T10:54:00;9.43;;;2.63;;
81901;SDS011;71369;50.796;3.290;2023-12-20T10:56:31;13.07;;;3.15;;
81901;SDS011;71369;50.796;3.290;2023-12-20T10:58:59;8.70;;;2.75;;
81901;SDS011;71369;50.796;3.290;2023-12-20T11:01:29;15.10;;;3.15;;
81901;SDS011;71369;50.796;3.290;2023-12-20T11:03:55;8.98;;;2.60;;
81901;SDS011;71369;50.796;3.290;2023-12-20T11:06:32;12.95;;;2.80;;
81901;SDS011;71369;50.796;3.290;2023-12-20T11:09:23;13.15;;;2.70;;
81901;SDS011;71369;50.796;3.290;2023-12-20T11:11:56;13.13;;;3.58;;
81901;SDS011;71369;50.796;3.290;2023-12-20T11:14:51;10.32;;;3.00;;
81901;SDS011;71369;50.796;3.290;2023-12-20T11:17:19;11.80;;;3.45;;
81901;SDS011;71369;50.796;3.290;2023-12-20T11:22:32;11.27;;;3.70;;
81901;SDS011;71369;50.796;3.290;2023-12-20T11:25:06;14.35;;;2.95;;
81901;SDS011;71369;50.796;3.290;2023-12-20T11:27:34;10.05;;;2.70;;
81901;SDS011;71369;50.796;3.290;2023-12-20T11:30:02;10.27;;;3.22;;
81901;SDS011;71369;50.796;3.290;2023-12-20T11:32:33;13.13;;;2.70;;
81901;SDS011;71369;50.796;3.290;2023-12-20T11:35:00;12.18;;;3.00;;
81901;SDS011;71369;50.796;3.290;2023-12-20T11:37:42;11.88;;;3.08;;
81901;SDS011;71369;50.796;3.290;2023-12-20T11:40:08;10.50;;;3.10;;
81901;SDS011;71369;50.796;3.290;2023-12-20T11:42:40;13.63;;;2.83;;
81901;SDS011;71369;50.796;3.290;2023-12-20T11:45:10;15.75;;;3.53;;
81901;SDS011;71369;50.796;3.290;2023-12-20T11:47:48;13.00;;;3.30;;
81901;SDS011;71369;50.796;3.290;2023-12-20T11:50:23;16.08;;;3.65;;
81901;SDS011;71369;50.796;3.290;2023-12-20T11:52:50;10.05;;;2.60;;
81901;SDS011;71369;50.796;3.290;2023-12-20T11:55:21;13.73;;;2.30;;
81901;SDS011;71369;50.796;3.290;2023-12-20T11:57:52;10.07;;;2.83;;
81901;SDS011;71369;50.796;3.290;2023-12-20T12:00:19;15.15;;;4.32;;
81901;SDS011;71369;50.796;3.290;2023-12-20T12:02:55;10.15;;;2.67;;
81901;SDS011;71369;50.796;3.290;2023-12-20T12:05:24;9.80;;;3.40;;
81901;SDS011;71369;50.796;3.290;2023-12-20T12:07:51;14.30;;;2.50;;
81901;SDS011;71369;50.796;3.290;2023-12-20T12:10:19;8.93;;;2.95;;
81901;SDS011;71369;50.796;3.290;2023-12-20T12:12:46;10.07;;;2.50;;
81901;SDS011;71369;50.796;3.290;2023-12-20T12:15:12;11.25;;;2.92;;
81901;SDS011;71369;50.796;3.290;2023-12-20T12:17:37;11.93;;;2.72;;
81901;SDS011;71369;50.796;3.290;2023-12-20T12:20:04;8.30;;;2.72;;
81901;SDS011;71369;50.796;3.290;2023-12-20T12:22:31;13.73;;;2.78;;
81901;SDS011;71369;50.796;3.290;2023-12-20T12:25:08;13.60;;;3.28;;
81901;SDS011;71369;50.796;3.290;2023-12-20T12:27:36;20.65;;;2.58;;
81901;SDS011;71369;50.796;3.290;2023-12-20T12:30:04;17.40;;;3.75;;
81901;SDS011;71369;50.796;3.290;2023-12-20T12:32:32;11.90;;;2.90;;
81901;SDS011;71369;50.796;3.290;2023-12-20T12:34:58;12.02;;;2.55;;
81901;SDS011;71369;50.796;3.290;2023-12-20T12:37:24;7.63;;;2.20;;
81901;SDS011;71369;50.796;3.290;2023-12-20T12:39:53;5.55;;;2.33;;
81901;SDS011;71369;50.796;3.290;2023-12-20T12:42:19;13.52;;;3.08;;
81901;SDS011;71369;50.796;3.290;2023-12-20T12:44:46;15.48;;;2.88;;
81901;SDS011;71369;50.796;3.290;2023-12-20T12:47:15;7.40;;;3.35;;
81901;SDS011;71369;50.796;3.290;2023-12-20T12:49:41;12.77;;;2.40;;
81901;SDS011;71369;50.796;3.290;2023-12-20T12:52:07;9.98;;;2.35;;
81901;SDS011;71369;50.796;3.290;2023-12-20T12:54:32;8.90;;;2.75;;
81901;SDS011;71369;50.796;3.290;2023-12-20T12:56:58;7.75;;;2.72;;
81901;SDS011;71369;50.796;3.290;2023-12-20T12:59:26;8.90;;;2.58;;
81901;SDS011;71369;50.796;3.290;2023-12-20T13:01:52;12.18;;;2.40;;
81901;SDS011;71369;50.796;3.290;2023-12-20T13:04:18;8.05;;;2.20;;
81901;SDS011;71369;50.796;3.290;2023-12-20T13:06:43;10.55;;;2.20;;
81901;SDS011;71369;50.796;3.290;2023-12-20T13:09:09;11.20;;;2.00;;
81901;SDS011;71369;50.796;3.290;2023-12-20T13:11:36;10.75;;;2.33;;
81901;SDS011;71369;50.796;3.290;2023-12-20T13:14:02;13.90;;;2.42;;
81901;SDS011;71369;50.796;3.290;2023-12-20T13:16:28;7.55;;;2.10;;
81901;SDS011;71369;50.796;3.290;2023-12-20T13:18:54;8.13;;;1.90;;
81901;SDS011;71369;50.796;3.290;2023-12-20T13:21:21;9.65;;;2.22;;
81901;SDS011;71369;50.796;3.290;2023-12-20T13:23:46;9.95;;;2.45;;
81901;SDS011;71369;50.796;3.290;2023-12-20T13:26:18;8.52;;;2.65;;
81901;SDS011;71369;50.796;3.290;2023-12-20T13:28:56;10.30;;;2.60;;
81901;SDS011;71369;50.796;3.290;2023-12-20T13:31:29;8.18;;;2.10;;
81901;SDS011;71369;50.796;3.290;2023-12-20T13:45:16;13.77;;;2.67;;
81901;SDS011;71369;50.796;3.290;2023-12-20T13:47:43;5.03;;;2.00;;
81901;SDS011;71369;50.796;3.290;2023-12-20T13:50:09;9.80;;;2.55;;
81901;SDS011;71369;50.796;3.290;2023-12-20T13:52:35;10.23;;;3.17;;
81901;SDS011;71369;50.796;3.290;2023-12-20T13:55:04;7.25;;;2.45;;
81901;SDS011;71369;50.796;3.290;2023-12-20T13:57:31;12.50;;;2.83;;
81901;SDS011;71369;50.796;3.290;2023-12-20T13:59:57;5.95;;;1.90;;
81901;SDS011;71369;50.796;3.290;2023-12-20T14:02:23;11.32;;;4.38;;
81901;SDS011;71369;50.796;3.290;2023-12-20T14:04:48;11.20;;;2.20;;
81901;SDS011;71369;50.796;3.290;2023-12-20T14:07:14;13.07;;;2.67;;
81901;SDS011;71369;50.796;3.290;2023-12-20T14:09:40;6.57;;;2.42;;
81901;SDS011;71369;50.796;3.290;2023-12-20T14:12:11;10.70;;;2.45;;
81901;SDS011;71369;50.796;3.290;2023-12-20T14:14:37;14.35;;;3.10;;
81901;SDS011;71369;50.796;3.290;2023-12-20T14:17:03;9.20;;;2.35;;
81901;SDS011;71369;50.796;3.290;2023-12-20T14:19:31;7.20;;;1.92;;
81901;SDS011;71369;50.796;3.290;2023-12-20T14:21:57;12.10;;;2.70;;
81901;SDS011;71369;50.796;3.290;2023-12-20T14:24:26;8.68;;;2.28;;
81901;SDS011;71369;50.796;3.290;2023-12-20T14:26:52;9.02;;;2.50;;
81901;SDS011;71369;50.796;3.290;2023-12-20T14:29:18;9.85;;;2.97;;
81901;SDS011;71369;50.796;3.290;2023-12-20T14:31:44;13.52;;;2.83;;
81901;SDS011;71369;50.796;3.290;2023-12-20T14:34:11;9.52;;;2.45;;
81901;SDS011;71369;50.796;3.290;2023-12-20T14:36:37;7.93;;;2.60;;
81901;SDS011;71369;50.796;3.290;2023-12-20T14:39:02;8.57;;;1.98;;
81901;SDS011;71369;50.796;3.290;2023-12-20T14:41:29;10.63;;;2.72;;
81901;SDS011;71369;50.796;3.290;2023-12-20T14:43:56;10.27;;;2.78;;
81901;SDS011;71369;50.796;3.290;2023-12-20T14:46:22;15.27;;;2.95;;
81901;SDS011;71369;50.796;3.290;2023-12-20T14:48:48;8.27;;;2.25;;
81901;SDS011;71369;50.796;3.290;2023-12-20T14:51:14;9.90;;;2.60;;
81901;SDS011;71369;50.796;3.290;2023-12-20T14:53:40;9.90;;;2.85;;
81901;SDS011;71369;50.796;3.290;2023-12-20T14:56:08;6.70;;;2.50;;
81901;SDS011;71369;50.796;3.290;2023-12-20T14:58:35;7.40;;;2.65;;